LFBA 211130Z AUTO 36009KT CAVOK 05/M00 Q1033 NOSIG

ElémentsDécodage
LFBA Station météo située sur l'aérodrome de AGEN La Garenne
211130Z émis le 21 du mois à 11h30 UTC
AUTO Bulletin édité par un automate
36009KT vent du 360°, 09 noeuds
CAVOK Ceiling And Visibility OK
- Visibilité de 10 Km ou plus
- Pas de nuage au-dessous de 1500m ou au-dessous de l'altitude minimale du secteur la plus élevée (si>1500m) et absence de CB
- pas de temps présent significatif
05/M00 température 05°C, point de rosée 00°C
 soit une humidité relative de 70%
Q1033 la pression au niveau de la mer (QNH) est de 1033 hPa
NOSIG Pas de changement significatif prévu au cours des deux heures suivant l'heure de l'observation